Pagina principale
METAR-TAF:

METAR-TAF

Aeroporti :

Aeroporto di Reggio Calabria

Reggio Calabria, Italia

latitudine: 38-04N, longitudine: 015-39E, altezza: 11 m

Osservazione

Il bollettino è stato emesso 47 minuti fa, alle 18:20 UTC
Vento 7 kt da nord
Temperature 21°C
Umidità 64%
Pressione 1017 hPa
Visibilità 10 km o più

METAR: LICR 241820Z AUTO 35007KT 9999 NCD 21/14 Q1017

Ora: 21:07 (19:07 UTC)

Previsione

Il bollettino è stato emesso 2 ore e 7 minuti fa, alle 17:00 UTC
Previsione valida dal 24 alle 18 UTC al 25 alle 18 UTC
Vento 11 kt da nord
Visibilità 10 km o più
Poco nuvoloso ad un'altezza di 3000 ft
Temporaneamente
dal 25 alle 09 UTC al 25 alle 16 UTC
Visibilità: 4000 m
rovesci di pioggia,

TAF: LICR 241700Z 2418/2518 35011KT 9999 FEW030 TEMPO 2509/2516 4000 SHRA

Osservazioni e previsioni meteorologiche di più di 4000 aeroporti (messaggi METAR e TAF).

Le stazioni disponibili sono rappresentate dai dischi gialli e rossi sulla carta.

Puntare il mouse per vedere il nome della stazione.

Clicca sopra per visualizzare le osservazioni e previsioni meteorologiche.

Per cambiare la mappa : fare clic sui pulsanti verdi con una croce nera per ingrandire, il pulsante verde con un trattino per diminuire, o sulla freccia verde per le mappe adiacenti.


METAR-TAF: